createdAt,value
2018-12-22T00:02:15.808Z,100.00
2018-12-22T00:04:44.335Z,100.00
2018-12-22T00:07:12.322Z,100.00
2018-12-22T00:09:40.345Z,100.00
2018-12-22T00:12:08.354Z,100.00
2018-12-22T00:14:36.323Z,100.00
2018-12-22T00:17:04.368Z,100.00
2018-12-22T00:19:32.445Z,100.00
2018-12-22T00:22:00.424Z,100.00
2018-12-22T00:24:28.377Z,100.00
2018-12-22T00:26:56.279Z,100.00
2018-12-22T00:29:24.295Z,100.00
2018-12-22T00:31:52.375Z,100.00
2018-12-22T00:34:20.355Z,100.00
2018-12-22T00:36:48.498Z,100.00
2018-12-22T00:39:16.551Z,100.00
2018-12-22T00:41:44.528Z,100.00
2018-12-22T00:44:12.564Z,100.00
2018-12-22T00:46:40.572Z,100.00
2018-12-22T00:49:08.511Z,100.00
2018-12-22T00:51:36.481Z,100.00
2018-12-22T00:54:04.470Z,100.00
2018-12-22T00:56:32.462Z,100.00
2018-12-22T00:59:00.587Z,100.00
2018-12-22T01:01:28.547Z,100.00
2018-12-22T01:03:56.469Z,100.00
2018-12-22T01:06:24.365Z,100.00
2018-12-22T01:08:52.348Z,100.00
2018-12-22T01:11:20.443Z,100.00
2018-12-22T01:13:48.414Z,100.00
2018-12-22T01:16:16.334Z,100.00
2018-12-22T01:18:44.322Z,100.00
2018-12-22T01:21:12.345Z,100.00
2018-12-22T01:23:40.328Z,100.00
2018-12-22T01:26:08.277Z,100.00
2018-12-22T01:28:39.570Z,100.00
2018-12-22T01:31:06.426Z,100.00
2018-12-22T01:33:34.398Z,100.00
2018-12-22T01:36:02.467Z,100.00
2018-12-22T01:38:30.499Z,100.00
2018-12-22T01:40:58.450Z,100.00
2018-12-22T01:43:26.369Z,100.00
2018-12-22T01:45:54.352Z,100.00
2018-12-22T01:48:22.330Z,100.00
2018-12-22T01:50:50.302Z,100.00
2018-12-22T01:53:18.273Z,100.00
2018-12-22T01:55:46.804Z,100.00
2018-12-22T01:58:14.752Z,100.00
2018-12-22T02:00:42.747Z,100.00
2018-12-22T02:03:10.703Z,100.00
2018-12-22T02:05:38.625Z,100.00
2018-12-22T02:08:06.824Z,100.00
2018-12-22T02:10:34.782Z,100.00
2018-12-22T02:13:02.771Z,100.00
2018-12-22T02:15:30.707Z,100.00
2018-12-22T02:17:58.672Z,100.00
2018-12-22T02:20:26.647Z,100.00
2018-12-22T02:22:54.599Z,100.00
2018-12-22T02:25:22.588Z,100.00
2018-12-22T02:27:50.677Z,100.00
2018-12-22T02:30:18.651Z,100.00
2018-12-22T02:32:46.591Z,100.00
2018-12-22T02:35:14.569Z,100.00
2018-12-22T02:37:42.505Z,100.00
2018-12-22T02:40:10.477Z,100.00
2018-12-22T02:42:38.457Z,100.00
2018-12-22T02:45:06.719Z,100.00
2018-12-22T02:47:34.682Z,100.00
2018-12-22T02:50:02.626Z,100.00
2018-12-22T02:52:30.596Z,100.00
2018-12-22T02:54:58.536Z,100.00
2018-12-22T02:57:26.491Z,100.00
2018-12-22T02:59:54.496Z,100.00
2018-12-22T03:02:22.513Z,100.00
2018-12-22T03:04:50.441Z,100.00
2018-12-22T03:07:18.415Z,100.00
2018-12-22T03:09:46.358Z,100.00
2018-12-22T03:12:14.333Z,100.00
2018-12-22T03:14:42.298Z,100.00
2018-12-22T03:17:10.202Z,100.00
2018-12-22T03:19:38.148Z,100.00
2018-12-22T03:22:06.287Z,100.00
2018-12-22T03:24:34.434Z,100.00
2018-12-22T03:27:02.904Z,100.00
2018-12-22T03:29:30.843Z,100.00
2018-12-22T03:31:58.869Z,100.00
2018-12-22T03:34:26.858Z,100.00
2018-12-22T03:36:54.799Z,100.00
2018-12-22T03:39:22.789Z,100.00
2018-12-22T03:41:50.702Z,100.00
2018-12-22T03:44:18.639Z,100.00
2018-12-22T03:46:46.638Z,100.00
2018-12-22T03:49:14.590Z,100.00
2018-12-22T03:51:42.476Z,100.00
2018-12-22T03:54:10.396Z,100.00
2018-12-22T03:56:38.331Z,100.00
2018-12-22T03:59:06.372Z,100.00
2018-12-22T04:01:34.330Z,100.00
2018-12-22T04:04:02.252Z,100.00
2018-12-22T04:06:30.251Z,100.00
2018-12-22T04:08:58.168Z,100.00
2018-12-22T04:11:26.113Z,100.00
2018-12-22T04:13:54.050Z,100.00
2018-12-22T04:16:21.957Z,100.00
2018-12-22T04:18:49.987Z,100.00
2018-12-22T04:21:17.935Z,100.00
2018-12-22T04:23:45.889Z,100.00
2018-12-22T04:26:13.858Z,100.00
2018-12-22T04:28:41.814Z,100.00
2018-12-22T04:31:09.794Z,100.00
2018-12-22T04:33:37.829Z,100.00
2018-12-22T04:36:05.745Z,100.00
2018-12-22T04:38:33.704Z,100.00
2018-12-22T04:41:01.720Z,100.00
2018-12-22T04:43:29.676Z,100.00
2018-12-22T04:45:57.700Z,100.00
2018-12-22T04:48:25.637Z,100.00
2018-12-22T04:50:53.573Z,100.00
2018-12-22T04:53:21.465Z,100.00
2018-12-22T04:55:49.414Z,100.00
2018-12-22T04:58:17.334Z,100.00
2018-12-22T05:00:45.290Z,100.00
2018-12-22T05:03:13.252Z,100.00
2018-12-22T05:05:41.246Z,100.00
2018-12-22T05:08:09.208Z,100.00
2018-12-22T05:10:37.220Z,100.00
2018-12-22T05:13:05.205Z,100.00
2018-12-22T05:15:33.212Z,100.00
2018-12-22T05:18:01.366Z,100.00
2018-12-22T05:20:29.339Z,100.00
2018-12-22T05:22:57.321Z,100.00
2018-12-22T05:25:25.256Z,100.00
2018-12-22T05:27:53.198Z,100.00
2018-12-22T05:30:21.229Z,100.00
2018-12-22T05:32:49.269Z,100.00
2018-12-22T05:35:17.206Z,100.00
2018-12-22T05:37:45.267Z,100.00
2018-12-22T05:40:13.472Z,100.00
2018-12-22T05:42:41.484Z,100.00
2018-12-22T05:45:09.535Z,100.00
2018-12-22T05:47:37.495Z,100.00
2018-12-22T05:50:05.925Z,100.00
2018-12-22T05:52:33.829Z,100.00
2018-12-22T05:55:01.761Z,100.00
2018-12-22T05:57:29.780Z,100.00
2018-12-22T06:00:00.807Z,100.00
2018-12-22T06:02:27.669Z,100.00
2018-12-22T06:04:55.645Z,100.00
2018-12-22T06:07:23.637Z,100.00
2018-12-22T06:09:51.608Z,100.00
2018-12-22T06:12:19.573Z,100.00
2018-12-22T06:14:47.641Z,100.00
2018-12-22T06:17:16.373Z,100.00
2018-12-22T06:19:44.309Z,100.00
2018-12-22T06:22:12.596Z,100.00
2018-12-22T06:24:40.556Z,100.00
2018-12-22T06:27:08.974Z,100.00
2018-12-22T06:29:37.054Z,100.00
2018-12-22T06:32:05.031Z,99.94
2018-12-22T06:34:33.294Z,100.00
2018-12-22T06:37:01.311Z,100.00
2018-12-22T06:39:29.730Z,100.00
2018-12-22T06:41:58.065Z,98.99
2018-12-22T06:44:26.569Z,99.71
2018-12-22T06:46:54.580Z,99.33
2018-12-22T06:49:22.715Z,96.61
2018-12-22T06:51:50.702Z,95.41
2018-12-22T06:54:18.985Z,95.81
2018-12-22T06:56:47.001Z,95.78
2018-12-22T06:59:15.360Z,94.00
2018-12-22T07:01:43.404Z,94.96
2018-12-22T07:04:11.662Z,94.92
2018-12-22T07:06:39.772Z,93.72
2018-12-22T07:09:08.048Z,91.61
2018-12-22T07:11:36.617Z,91.86
2018-12-22T07:14:04.659Z,92.72
2018-12-22T07:16:33.252Z,93.45
2018-12-22T07:19:01.262Z,90.77
2018-12-22T07:21:29.659Z,89.48
2018-12-22T07:23:57.649Z,89.60
2018-12-22T07:26:25.842Z,91.56
2018-12-22T07:28:54.069Z,92.04
2018-12-22T07:31:22.091Z,89.99
2018-12-22T07:33:50.298Z,92.13
2018-12-22T07:36:19.166Z,90.18
2018-12-22T07:38:48.526Z,87.96
2018-12-22T07:41:16.630Z,84.84
2018-12-22T07:43:44.648Z,85.33
2018-12-22T07:46:12.712Z,87.01
2018-12-22T07:48:40.753Z,87.42
2018-12-22T07:51:08.839Z,86.63
2018-12-22T07:53:36.936Z,87.15
2018-12-22T07:56:05.229Z,84.32
2018-12-22T07:58:33.301Z,83.69
2018-12-22T08:01:01.446Z,81.86
2018-12-22T08:03:29.497Z,83.42
2018-12-22T08:05:57.658Z,84.25
2018-12-22T08:08:25.804Z,85.80
2018-12-22T08:10:54.060Z,86.07
2018-12-22T08:13:22.176Z,85.86
2018-12-22T08:15:50.364Z,86.31
2018-12-22T08:18:18.576Z,86.46
2018-12-22T08:20:46.763Z,87.13
2018-12-22T08:23:14.819Z,87.58
2018-12-22T08:25:42.993Z,85.70
2018-12-22T08:28:11.088Z,86.97
2018-12-22T08:30:43.464Z,84.01
2018-12-22T08:33:09.535Z,84.39
2018-12-22T08:35:37.561Z,84.61
2018-12-22T08:38:05.793Z,86.50
2018-12-22T08:40:34.436Z,86.48
2018-12-22T08:43:02.571Z,85.87
2018-12-22T08:45:30.663Z,84.11
2018-12-22T08:47:59.326Z,82.84
2018-12-22T08:50:27.372Z,83.57
2018-12-22T08:52:55.887Z,83.74
2018-12-22T08:55:24.047Z,82.87
2018-12-22T08:57:52.048Z,81.71
2018-12-22T09:00:20.203Z,81.88
2018-12-22T09:02:48.598Z,81.22
2018-12-22T09:05:16.745Z,81.92
2018-12-22T09:07:44.854Z,82.46
2018-12-22T09:10:12.963Z,81.21
2018-12-22T09:12:40.972Z,79.89
2018-12-22T09:15:09.307Z,81.59
2018-12-22T09:17:37.378Z,82.58
2018-12-22T09:20:08.066Z,83.75
2018-12-22T09:22:36.257Z,84.47
2018-12-22T09:25:04.955Z,83.89
2018-12-22T09:27:33.229Z,81.93
2018-12-22T09:30:01.553Z,80.75
2018-12-22T16:07:44.266Z,100.00
2018-12-22T16:10:13.569Z,100.00
2018-12-22T16:15:39.007Z,100.00
2018-12-22T16:18:06.929Z,100.00
2018-12-22T16:20:35.007Z,100.00
2018-12-22T16:23:03.998Z,100.00
2018-12-22T16:25:32.256Z,100.00
2018-12-22T16:28:07.299Z,100.00
2018-12-22T16:30:41.631Z,100.00
2018-12-22T16:33:09.899Z,100.00
2018-12-22T16:35:38.361Z,100.00
2018-12-22T16:38:06.632Z,100.00
2018-12-22T16:40:34.924Z,100.00
2018-12-22T16:43:04.821Z,100.00
2018-12-22T16:45:33.191Z,100.00
2018-12-22T16:48:01.199Z,100.00
2018-12-22T16:50:31.520Z,100.00
2018-12-22T16:52:59.581Z,100.00
2018-12-22T16:55:28.073Z,100.00
2018-12-22T16:58:08.751Z,100.00
2018-12-22T17:00:41.563Z,100.00
2018-12-22T17:03:11.171Z,100.00
2018-12-22T17:05:39.659Z,100.00
2018-12-22T17:08:07.703Z,100.00
2018-12-22T17:10:41.973Z,100.00
2018-12-22T17:13:11.069Z,100.00
2018-12-22T17:15:42.566Z,100.00
2018-12-22T17:18:10.445Z,100.00
2018-12-22T17:20:38.487Z,100.00
2018-12-22T17:23:14.485Z,100.00
2018-12-22T17:25:52.574Z,100.00
2018-12-22T17:28:28.021Z,100.00
2018-12-22T17:30:50.867Z,100.00
2018-12-22T17:33:19.346Z,100.00
2018-12-22T17:35:47.461Z,100.00
2018-12-22T17:38:15.467Z,100.00
2018-12-22T17:40:43.446Z,100.00
2018-12-22T17:43:11.620Z,100.00
2018-12-22T17:45:39.709Z,100.00
2018-12-22T17:48:07.767Z,100.00
2018-12-22T17:50:35.821Z,100.00
2018-12-22T17:53:04.240Z,100.00
2018-12-22T17:55:32.423Z,100.00
2018-12-22T17:58:00.493Z,100.00
2018-12-22T18:00:28.861Z,100.00
2018-12-22T18:02:57.097Z,100.00
2018-12-22T18:05:25.391Z,100.00
2018-12-22T18:07:53.560Z,100.00
2018-12-22T18:10:21.810Z,100.00
2018-12-22T18:12:50.306Z,100.00
2018-12-22T18:15:20.998Z,100.00
2018-12-22T18:17:49.422Z,100.00
2018-12-22T18:20:18.066Z,100.00
2018-12-22T18:22:46.381Z,100.00
2018-12-22T18:25:16.174Z,100.00
2018-12-22T18:27:44.145Z,100.00
2018-12-22T18:30:12.677Z,100.00
2018-12-22T18:32:40.950Z,100.00
2018-12-22T18:35:10.165Z,100.00
2018-12-22T18:37:38.181Z,100.00
2018-12-22T18:40:12.162Z,100.00
2018-12-22T18:42:40.446Z,100.00
2018-12-22T18:45:10.361Z,100.00
2018-12-22T18:47:38.588Z,100.00
2018-12-22T18:50:12.982Z,100.00
2018-12-22T18:52:41.187Z,100.00
2018-12-22T18:55:09.452Z,100.00
2018-12-22T18:57:37.637Z,100.00
2018-12-22T19:00:13.618Z,100.00
2018-12-22T19:02:41.649Z,100.00
2018-12-22T19:05:09.773Z,100.00
2018-12-22T19:07:37.749Z,100.00
2018-12-22T19:10:12.601Z,100.00
2018-12-22T19:12:40.610Z,100.00
2018-12-22T19:15:08.701Z,100.00
2018-12-22T19:17:36.700Z,100.00
2018-12-22T19:20:08.295Z,100.00
2018-12-22T19:22:36.302Z,100.00
2018-12-22T19:25:04.657Z,100.00
2018-12-22T19:27:32.706Z,100.00
2018-12-22T19:30:00.785Z,100.00
2018-12-22T19:32:28.817Z,100.00
2018-12-22T19:34:56.805Z,100.00
2018-12-22T19:37:24.797Z,100.00
2018-12-22T19:39:52.798Z,100.00
2018-12-22T19:42:20.809Z,100.00
2018-12-22T19:44:48.767Z,100.00
2018-12-22T19:47:16.879Z,100.00
2018-12-22T19:49:44.848Z,100.00
2018-12-22T19:52:12.894Z,100.00
2018-12-22T19:54:40.892Z,100.00
2018-12-22T19:57:08.984Z,100.00
2018-12-22T19:59:38.709Z,100.00
2018-12-22T20:02:07.048Z,100.00
2018-12-22T20:04:35.210Z,100.00
2018-12-22T20:07:03.372Z,100.00
2018-12-22T20:09:31.301Z,100.00
2018-12-22T20:11:59.409Z,100.00
2018-12-22T20:14:27.295Z,100.00
2018-12-22T20:16:55.428Z,100.00
2018-12-22T20:19:23.398Z,100.00
2018-12-22T20:21:51.369Z,100.00
2018-12-22T20:24:19.350Z,100.00
2018-12-22T20:26:47.361Z,100.00
2018-12-22T20:29:15.343Z,100.00
2018-12-22T20:31:43.263Z,100.00
2018-12-22T20:34:11.490Z,100.00
2018-12-22T20:36:39.703Z,100.00
2018-12-22T20:39:07.792Z,100.00
2018-12-22T20:41:35.714Z,100.00
2018-12-22T20:44:03.616Z,100.00
2018-12-22T20:46:31.567Z,100.00
2018-12-22T20:48:59.445Z,100.00
2018-12-22T20:51:27.397Z,100.00
2018-12-22T20:53:55.312Z,100.00
2018-12-22T20:56:23.226Z,100.00
2018-12-22T20:58:51.217Z,100.00
2018-12-22T21:01:19.238Z,100.00
2018-12-22T21:03:47.608Z,100.00
2018-12-22T21:06:20.175Z,100.00
2018-12-22T21:08:48.232Z,100.00
2018-12-22T21:11:16.295Z,100.00
2018-12-22T21:13:44.313Z,100.00
2018-12-22T21:16:12.278Z,100.00
2018-12-22T21:18:40.273Z,100.00
2018-12-22T21:21:08.139Z,100.00
2018-12-22T21:23:36.023Z,100.00
2018-12-22T21:26:03.956Z,100.00
2018-12-22T21:28:31.813Z,100.00
2018-12-22T21:30:59.755Z,100.00
2018-12-22T21:33:27.755Z,100.00
2018-12-22T21:35:55.734Z,100.00
2018-12-22T21:38:23.770Z,100.00
2018-12-22T21:40:53.075Z,100.00
2018-12-22T21:43:21.162Z,100.00
2018-12-22T21:45:49.330Z,100.00
2018-12-22T21:48:17.306Z,100.00
2018-12-22T21:50:45.231Z,100.00
2018-12-22T21:53:13.209Z,100.00
2018-12-22T21:55:41.262Z,100.00
2018-12-22T21:58:09.481Z,100.00
2018-12-22T22:00:37.571Z,100.00
2018-12-22T22:03:05.542Z,100.00
2018-12-22T22:05:33.642Z,100.00
2018-12-22T22:08:01.626Z,100.00
2018-12-22T22:10:29.600Z,100.00
2018-12-22T22:12:57.527Z,100.00
2018-12-22T22:15:25.488Z,100.00
2018-12-22T22:17:53.516Z,100.00
2018-12-22T22:20:21.421Z,100.00
2018-12-22T22:22:49.299Z,100.00
2018-12-22T22:25:17.207Z,100.00
2018-12-22T22:27:45.048Z,100.00
2018-12-22T22:30:13.049Z,100.00
2018-12-22T22:32:41.018Z,100.00
2018-12-22T22:35:08.888Z,100.00
2018-12-22T22:37:36.841Z,100.00
2018-12-22T22:40:04.846Z,100.00
2018-12-22T22:42:32.744Z,100.00
2018-12-22T22:45:00.635Z,100.00
2018-12-22T22:47:28.531Z,100.00
2018-12-22T22:49:56.507Z,100.00
2018-12-22T22:52:24.484Z,100.00
2018-12-22T22:54:52.416Z,100.00
2018-12-22T22:57:20.335Z,100.00
2018-12-22T22:59:48.431Z,100.00
2018-12-22T23:02:16.394Z,100.00
2018-12-22T23:04:44.258Z,100.00
2018-12-22T23:07:12.191Z,100.00
2018-12-22T23:09:40.160Z,100.00
2018-12-22T23:12:08.062Z,100.00
2018-12-22T23:14:35.961Z,100.00
2018-12-22T23:17:03.903Z,100.00
2018-12-22T23:19:31.817Z,100.00
2018-12-22T23:21:59.786Z,100.00
2018-12-22T23:24:27.661Z,100.00
2018-12-22T23:26:55.710Z,100.00
2018-12-22T23:29:23.633Z,100.00
2018-12-22T23:31:51.488Z,100.00
2018-12-22T23:34:19.506Z,100.00
2018-12-22T23:36:47.380Z,100.00
2018-12-22T23:39:15.258Z,100.00
2018-12-22T23:41:43.161Z,100.00
2018-12-22T23:44:11.031Z,100.00
2018-12-22T23:46:38.978Z,100.00
2018-12-22T23:49:06.848Z,100.00
2018-12-22T23:51:34.720Z,100.00
2018-12-22T23:54:02.611Z,100.00
2018-12-22T23:56:30.523Z,100.00
2018-12-22T23:58:58.429Z,100.00
